Time;durP1;ratioP1;P1;durP2;ratioP2;P2;SDS_P1;SDS_P2;PMS_P1;PMS_P2;Temp;Humidity;BMP_temperature;BMP_pressure;BME280_temperature;BME280_humidity;BME280_pressure;Samples;Min_cycle;Max_cycle;Signal;HPM_P1;HPM_P2
2021/05/20 00:00:20;;;;;;;2.03;0.88;;;;;;;13.59;60.31;101033.69;5110012;28;20557;-53
2021/05/20 00:02:47;;;;;;;2.60;0.70;;;;;;;13.55;60.45;101035.56;5100283;28;20433;-50
2021/05/20 00:05:17;;;;;;;2.25;0.60;;;;;;;13.60;60.63;101029.75;5084095;28;20048;-55
2021/05/20 00:07:46;;;;;;;0.68;0.40;;;;;;;13.55;61.14;101022.47;5104667;28;20101;-55
2021/05/20 00:10:14;;;;;;;2.33;1.10;;;;;;;13.53;61.33;101022.00;5099112;28;20439;-50
2021/05/20 00:12:43;;;;;;;1.30;0.50;;;;;;;13.53;61.24;101015.66;5098305;28;20040;-53
2021/05/20 00:15:11;;;;;;;2.03;0.80;;;;;;;13.50;61.59;101014.41;5093119;28;20048;-55
2021/05/20 00:17:37;;;;;;;1.38;0.57;;;;;;;13.47;61.73;101015.13;5097856;28;20063;-53
2021/05/20 00:20:05;;;;;;;2.95;0.77;;;;;;;13.52;61.82;101012.06;5089877;28;20087;-54
2021/05/20 00:22:32;;;;;;;1.45;1.05;;;;;;;13.57;61.82;101017.34;5089723;28;20481;-56
2021/05/20 00:25:01;;;;;;;1.52;0.90;;;;;;;13.55;61.79;101014.13;5104110;28;20079;-54
2021/05/20 00:27:28;;;;;;;5.03;1.10;;;;;;;13.56;61.74;101012.13;5111083;28;20089;-53
2021/05/20 00:29:56;;;;;;;2.72;1.00;;;;;;;13.54;62.12;101009.72;5104524;28;20063;-54
2021/05/20 00:32:23;;;;;;;3.75;1.08;;;;;;;13.58;61.89;101007.81;5103779;28;20450;-54
2021/05/20 00:34:51;;;;;;;2.50;0.82;;;;;;;13.60;61.95;101008.28;5105252;28;20043;-54
2021/05/20 00:37:27;;;;;;;1.38;0.80;;;;;;;13.56;62.02;101001.00;5095300;28;20572;-54
2021/05/20 00:39:54;;;;;;;1.98;0.85;;;;;;;13.53;62.00;100988.63;5092591;28;20047;-51
2021/05/20 00:42:20;;;;;;;5.00;1.55;;;;;;;13.51;62.13;100979.84;5101525;28;20721;-52
2021/05/20 00:45:00;;;;;;;1.75;1.05;;;;;;;13.43;62.39;100978.03;5110822;28;20031;-51
2021/05/20 00:47:30;;;;;;;1.63;0.57;;;;;;;13.45;62.20;100969.34;5104707;28;20040;-53
2021/05/20 00:49:58;;;;;;;3.13;0.88;;;;;;;13.43;62.09;100966.91;5103018;28;20069;-53
2021/05/20 00:52:25;;;;;;;3.60;1.17;;;;;;;13.41;61.65;100955.34;5097006;28;20044;-53
2021/05/20 00:54:58;;;;;;;1.77;1.10;;;;;;;13.34;61.72;100946.84;5104384;28;20040;-51
2021/05/20 00:57:26;;;;;;;2.20;0.77;;;;;;;13.25;61.18;100941.44;5100156;28;20043;-54
2021/05/20 00:59:53;;;;;;;2.45;0.50;;;;;;;13.15;60.83;100932.84;5106556;28;20229;-51
2021/05/20 01:02:21;;;;;;;4.78;0.63;;;;;;;13.14;60.83;100931.22;5102122;28;20526;-55
2021/05/20 01:04:49;;;;;;;3.17;0.63;;;;;;;13.12;60.04;100928.81;5096417;28;20409;-56
2021/05/20 01:07:16;;;;;;;1.65;0.50;;;;;;;13.07;58.92;100920.72;5108157;28;20044;-53
2021/05/20 01:09:43;;;;;;;3.63;0.50;;;;;;;13.06;58.21;100921.03;5091922;28;20070;-49
2021/05/20 01:12:11;;;;;;;2.38;1.00;;;;;;;13.03;58.27;100913.41;5086931;28;20447;-55
2021/05/20 01:14:42;;;;;;;6.55;1.20;;;;;;;13.01;58.88;100912.97;5105084;28;20066;-53
2021/05/20 01:17:09;;;;;;;7.30;0.98;;;;;;;13.01;59.16;100912.97;5078010;28;20063;-51
2021/05/20 01:19:42;;;;;;;2.55;0.80;;;;;;;13.00;59.57;100908.59;5101994;28;20070;-51
2021/05/20 01:22:09;;;;;;;2.58;0.90;;;;;;;12.98;59.51;100911.72;5103035;28;20086;-53
2021/05/20 01:24:37;;;;;;;6.53;1.00;;;;;;;12.97;59.83;100898.19;5109090;28;20617;-52
2021/05/20 01:27:05;;;;;;;1.33;1.00;;;;;;;12.92;60.05;100890.91;5110208;28;20067;-51
2021/05/20 01:29:33;;;;;;;6.43;1.00;;;;;;;12.89;60.09;100880.53;5092365;28;20126;-53
2021/05/20 01:32:01;;;;;;;1.75;0.70;;;;;;;12.78;59.98;100871.91;5099848;28;20058;-55
2021/05/20 01:34:32;;;;;;;2.22;0.82;;;;;;;12.73;59.98;100882.47;5104484;28;20067;-55
2021/05/20 01:37:09;;;;;;;1.77;1.10;;;;;;;12.69;60.06;100879.59;5070672;28;20105;-53
2021/05/20 01:39:38;;;;;;;2.72;1.00;;;;;;;12.70;59.79;100872.88;5069778;28;20549;-52
2021/05/20 01:42:05;;;;;;;2.10;0.90;;;;;;;12.66;59.53;100871.97;5071545;28;20041;-55
2021/05/20 01:44:32;;;;;;;2.95;1.10;;;;;;;12.60;59.69;100876.16;5069575;28;20080;-52
2021/05/20 01:46:59;;;;;;;2.15;1.20;;;;;;;12.56;59.77;100877.22;5090063;28;20056;-52
2021/05/20 01:49:26;;;;;;;4.35;1.10;;;;;;;12.50;59.92;100868.34;5105110;28;20071;-56
2021/05/20 01:51:52;;;;;;;3.63;1.02;;;;;;;12.44;59.94;100861.47;5090629;28;20052;-57
2021/05/20 01:54:19;;;;;;;4.55;1.23;;;;;;;12.39;60.22;100855.34;5111714;28;20481;-53
2021/05/20 01:56:46;;;;;;;5.32;2.15;;;;;;;12.34;60.58;100852.84;5105112;28;20426;-54
2021/05/20 01:59:13;;;;;;;5.13;1.65;;;;;;;12.25;61.13;100850.22;5090048;28;20081;-53
2021/05/20 02:01:43;;;;;;;7.15;1.90;;;;;;;12.23;61.70;100855.31;5096701;28;20401;-55
2021/05/20 02:04:10;;;;;;;7.28;1.80;;;;;;;12.13;62.22;100847.47;5111545;28;20044;-54
2021/05/20 02:06:38;;;;;;;6.70;2.60;;;;;;;12.10;63.11;100848.16;5100270;28;20047;-49
2021/05/20 02:09:05;;;;;;;7.28;1.80;;;;;;;12.06;63.47;100836.16;5095625;28;20071;-52
2021/05/20 02:11:32;;;;;;;9.57;1.92;;;;;;;12.03;63.74;100837.69;5095413;28;20382;-52
2021/05/20 02:13:59;;;;;;;9.45;2.10;;;;;;;11.97;64.11;100829.94;5096072;28;20047;-50
2021/05/20 02:16:25;;;;;;;6.45;1.85;;;;;;;11.91;64.60;100809.19;5098071;28;20067;-55
2021/05/20 02:18:55;;;;;;;10.90;2.30;;;;;;;11.89;64.62;100806.75;5110132;28;20079;-51
2021/05/20 02:21:23;;;;;;;10.60;2.45;;;;;;;11.91;64.70;100798.09;5074866;28;20557;-52
2021/05/20 02:23:50;;;;;;;12.68;1.92;;;;;;;11.90;64.89;100794.50;5074917;28;20094;-51
2021/05/20 02:26:17;;;;;;;8.45;3.28;;;;;;;11.96;64.97;100792.28;5074819;28;20072;-54
2021/05/20 02:28:44;;;;;;;20.48;5.53;;;;;;;11.97;65.19;100793.88;5083298;28;20083;-51
2021/05/20 02:31:11;;;;;;;6.53;2.05;;;;;;;11.97;65.39;100778.03;5094850;28;20079;-53
2021/05/20 02:33:38;;;;;;;9.55;2.97;;;;;;;11.98;65.38;100773.31;5096084;28;20048;-51
2021/05/20 02:36:07;;;;;;;5.05;2.00;;;;;;;11.97;65.53;100766.13;5097490;28;20037;-53
2021/05/20 02:38:34;;;;;;;8.93;2.40;;;;;;;11.99;65.62;100752.75;5075779;28;20110;-53
2021/05/20 02:41:01;;;;;;;8.25;2.78;;;;;;;11.95;65.77;100754.59;5101215;28;20048;-52
2021/05/20 02:43:28;;;;;;;5.32;1.88;;;;;;;11.90;65.89;100733.47;5096338;28;20097;-54
2021/05/20 02:45:55;;;;;;;8.95;2.45;;;;;;;11.87;65.90;100728.63;5107991;28;20469;-51
2021/05/20 02:48:22;;;;;;;8.52;2.03;;;;;;;11.85;66.23;100724.59;5112148;28;20048;-52
2021/05/20 02:50:48;;;;;;;12.18;2.85;;;;;;;11.79;66.56;100709.34;5103946;28;20082;-53
2021/05/20 02:53:15;;;;;;;7.50;1.92;;;;;;;11.80;66.71;100703.47;5101698;28;20041;-51
2021/05/20 02:55:42;;;;;;;5.50;1.95;;;;;;;11.80;67.01;100699.88;5108482;28;20115;-51
2021/05/20 02:58:09;;;;;;;7.75;1.85;;;;;;;11.78;67.23;100683.56;5093944;28;20048;-55
2021/05/20 03:00:38;;;;;;;7.30;2.15;;;;;;;11.82;67.01;100673.41;5095424;28;20151;-51
2021/05/20 03:03:05;;;;;;;5.28;1.55;;;;;;;11.81;67.36;100666.22;5103598;28;20139;-53
2021/05/20 03:05:32;;;;;;;8.02;1.73;;;;;;;11.77;67.62;100667.31;5102151;28;20081;-51
2021/05/20 03:07:59;;;;;;;8.52;2.15;;;;;;;11.76;67.98;100649.03;5094849;28;20722;-55
2021/05/20 03:10:26;;;;;;;9.57;2.58;;;;;;;11.78;68.05;100647.53;5093506;28;20076;-52
2021/05/20 03:12:55;;;;;;;9.27;2.08;;;;;;;11.82;68.16;100644.84;5082033;28;20109;-54
2021/05/20 03:15:22;;;;;;;7.68;2.20;;;;;;;11.79;68.56;100649.16;5098356;28;20085;-51
2021/05/20 03:17:49;;;;;;;7.93;1.95;;;;;;;11.73;68.63;100636.69;5107432;28;20138;-54
2021/05/20 03:20:17;;;;;;;6.22;1.95;;;;;;;11.74;68.58;100643.84;5098816;28;20079;-55
2021/05/20 03:22:47;;;;;;;10.27;2.50;;;;;;;11.71;68.78;100630.69;5097080;28;20381;-52
2021/05/20 03:25:16;;;;;;;3.72;1.15;;;;;;;11.60;69.45;100630.38;5094744;28;20093;-54
2021/05/20 03:27:43;;;;;;;5.90;1.10;;;;;;;11.62;69.05;100616.19;5094172;28;20081;-54
2021/05/20 03:30:11;;;;;;;11.30;1.90;;;;;;;11.63;69.05;100601.94;5108675;28;20551;-52
2021/05/20 03:32:38;;;;;;;14.10;1.40;;;;;;;11.66;69.17;100613.47;5099547;28;20131;-54
2021/05/20 03:35:05;;;;;;;13.52;1.85;;;;;;;11.64;69.24;100591.66;5099452;28;20027;-51
2021/05/20 03:37:34;;;;;;;14.27;2.03;;;;;;;11.62;69.23;100597.56;5111335;28;20043;-54
2021/05/20 03:40:01;;;;;;;11.10;3.38;;;;;;;11.63;69.35;100585.31;5100747;28;20032;-50
2021/05/20 03:42:28;;;;;;;7.53;1.35;;;;;;;11.65;69.40;100581.38;5093198;28;20075;-54
2021/05/20 03:44:54;;;;;;;8.38;1.90;;;;;;;11.66;69.51;100571.88;5091551;28;20091;-53
2021/05/20 03:47:21;;;;;;;8.55;1.70;;;;;;;11.68;69.75;100570.38;5110872;28;20040;-54
2021/05/20 03:49:48;;;;;;;11.27;1.70;;;;;;;11.68;69.64;100556.50;5106381;28;20126;-52
2021/05/20 03:52:15;;;;;;;10.98;2.17;;;;;;;11.67;69.85;100556.88;5101276;28;20127;-53
2021/05/20 03:54:42;;;;;;;18.60;3.55;;;;;;;11.61;70.11;100551.59;5096889;28;20485;-55
2021/05/20 03:57:10;;;;;;;12.82;1.83;;;;;;;11.57;70.67;100536.00;5089089;28;20051;-52
2021/05/20 03:59:37;;;;;;;10.60;2.40;;;;;;;11.56;70.75;100524.13;5093639;28;20048;-50
2021/05/20 04:02:05;;;;;;;8.15;2.50;;;;;;;11.54;71.11;100520.09;5104504;28;20043;-51
2021/05/20 04:04:31;;;;;;;11.25;1.90;;;;;;;11.50;71.49;100508.91;5095898;28;20097;-53
2021/05/20 04:06:58;;;;;;;15.82;2.40;;;;;;;11.47;71.81;100503.28;5109857;28;20073;-54
2021/05/20 04:09:25;;;;;;;11.30;2.47;;;;;;;11.45;72.06;100494.50;5113675;28;20435;-55
2021/05/20 04:11:55;;;;;;;7.95;2.15;;;;;;;11.42;72.17;100484.94;5096309;28;20509;-55
2021/05/20 04:14:22;;;;;;;13.25;1.92;;;;;;;11.43;72.46;100475.47;5112096;28;20052;-50
2021/05/20 04:16:49;;;;;;;14.00;2.13;;;;;;;11.41;72.67;100474.22;5096501;28;20143;-54
2021/05/20 04:19:16;;;;;;;14.75;2.00;;;;;;;11.40;72.65;100476.19;5083646;28;20047;-53
2021/05/20 04:21:43;;;;;;;7.32;1.92;;;;;;;11.38;72.65;100463.84;5087107;28;20090;-48
2021/05/20 04:24:12;;;;;;;17.38;3.25;;;;;;;11.37;72.68;100465.81;5112891;28;20044;-51
2021/05/20 04:26:39;;;;;;;9.80;2.08;;;;;;;11.38;72.73;100450.81;5094990;28;20086;-49
2021/05/20 04:29:08;;;;;;;11.50;2.17;;;;;;;11.33;72.80;100437.19;5100624;28;20079;-49
2021/05/20 04:31:35;;;;;;;3.72;2.05;;;;;;;11.19;72.61;100433.25;5104183;28;20044;-49
2021/05/20 04:34:02;;;;;;;7.55;1.33;;;;;;;11.07;72.53;100417.50;5096612;28;20060;-50
2021/05/20 04:36:29;;;;;;;9.55;1.80;;;;;;;11.04;72.40;100412.69;5090236;28;20044;-49
2021/05/20 04:38:55;;;;;;;7.63;1.20;;;;;;;10.98;72.56;100391.97;5106957;28;20120;-49
2021/05/20 04:41:22;;;;;;;8.68;0.93;;;;;;;10.90;72.33;100384.63;5098416;28;20040;-50
2021/05/20 04:43:49;;;;;;;4.88;1.48;;;;;;;10.78;72.02;100376.38;5060362;28;20040;-52
2021/05/20 04:46:16;;;;;;;4.43;1.88;;;;;;;10.74;72.11;100372.72;5072711;28;20094;-52
2021/05/20 04:48:43;;;;;;;12.65;2.35;;;;;;;10.70;72.20;100363.50;5083685;28;20082;-49
2021/05/20 04:51:10;;;;;;;5.90;0.80;;;;;;;10.65;72.18;100361.00;5093760;28;20163;-56
2021/05/20 04:53:36;;;;;;;4.22;1.13;;;;;;;10.59;71.97;100340.31;5081597;28;20438;-49
2021/05/20 04:56:04;;;;;;;6.70;1.40;;;;;;;10.57;71.83;100328.75;5102023;28;20068;-50
2021/05/20 04:58:31;;;;;;;5.03;0.45;;;;;;;10.54;71.59;100316.44;5092338;28;20040;-49
2021/05/20 05:00:58;;;;;;;3.70;0.73;;;;;;;10.52;71.22;100298.56;5091753;28;20055;-51
2021/05/20 05:03:24;;;;;;;3.97;1.88;;;;;;;10.45;71.42;100301.16;5091615;28;20047;-48
2021/05/20 05:05:53;;;;;;;8.48;1.92;;;;;;;10.37;71.59;100276.06;5092119;28;20427;-49
2021/05/20 05:08:20;;;;;;;8.27;1.30;;;;;;;10.39;71.74;100271.00;5092059;28;20052;-50
2021/05/20 05:10:47;;;;;;;8.63;1.95;;;;;;;10.38;72.00;100257.50;5089960;28;20048;-50
2021/05/20 05:13:17;;;;;;;3.53;1.23;;;;;;;10.38;72.71;100250.00;5110396;28;20473;-48
2021/05/20 05:15:44;;;;;;;8.05;1.30;;;;;;;10.34;72.47;100240.00;5104674;28;20043;-51
2021/05/20 05:18:11;;;;;;;9.75;1.30;;;;;;;10.32;72.68;100226.53;5093037;28;20083;-51
2021/05/20 05:20:38;;;;;;;5.53;1.30;;;;;;;10.29;73.29;100216.19;5097846;28;20056;-51
2021/05/20 05:23:05;;;;;;;10.35;2.70;;;;;;;10.31;73.67;100218.56;5111940;28;20104;-52
2021/05/20 05:25:32;;;;;;;8.40;2.08;;;;;;;10.34;73.91;100201.25;5107678;28;20056;-49
2021/05/20 05:27:59;;;;;;;10.13;2.17;;;;;;;10.36;74.15;100194.22;5096477;28;20051;-49
2021/05/20 05:30:29;;;;;;;14.95;2.80;;;;;;;10.37;74.75;100175.66;5093871;28;20074;-50
2021/05/20 05:32:55;;;;;;;10.27;1.67;;;;;;;10.35;74.97;100177.97;5099120;28;20090;-49
2021/05/20 05:35:22;;;;;;;8.30;1.65;;;;;;;10.32;75.24;100156.56;5094566;28;20047;-50
2021/05/20 05:37:49;;;;;;;8.48;1.65;;;;;;;10.29;75.49;100141.47;5106325;28;20059;-52
2021/05/20 05:40:16;;;;;;;6.38;1.70;;;;;;;10.21;76.33;100131.41;5099884;28;20044;-49
2021/05/20 05:42:43;;;;;;;8.10;1.90;;;;;;;10.15;77.01;100110.69;5093359;28;20079;-52
2021/05/20 05:45:11;;;;;;;9.88;1.83;;;;;;;10.07;77.79;100119.13;5072329;28;20048;-47
2021/05/20 05:47:40;;;;;;;8.80;1.90;;;;;;;10.03;77.50;100085.88;5111584;28;20071;-51
2021/05/20 05:50:11;;;;;;;6.45;1.40;;;;;;;9.96;77.94;100065.50;5105391;28;20058;-50
2021/05/20 05:52:39;;;;;;;4.22;0.77;;;;;;;9.88;78.42;100059.00;5098094;28;20060;-50
2021/05/20 05:55:06;;;;;;;5.38;1.30;;;;;;;9.84;78.63;100040.72;5107113;28;20489;-52
2021/05/20 05:57:34;;;;;;;4.70;1.40;;;;;;;9.82;78.94;100024.50;5094791;28;20110;-51
2021/05/20 06:00:01;;;;;;;5.88;1.02;;;;;;;9.80;79.23;100015.75;5098417;28;20115;-49
2021/05/20 06:02:32;;;;;;;7.10;1.73;;;;;;;9.78;79.51;99996.78;5086880;28;20059;-46
2021/05/20 06:05:00;;;;;;;12.85;1.83;;;;;;;9.82;79.95;99994.09;5100066;28;20485;-48
2021/05/20 06:07:28;;;;;;;19.05;2.25;;;;;;;9.82;79.77;99985.00;5098739;28;20051;-49
2021/05/20 06:09:55;;;;;;;10.48;1.50;;;;;;;9.85;79.35;99979.53;5084441;28;20119;-48
2021/05/20 06:12:21;;;;;;;4.35;0.63;;;;;;;9.85;79.69;99985.06;5083151;28;20125;-47
2021/05/20 06:14:48;;;;;;;16.58;3.15;;;;;;;9.85;79.84;99976.78;5080981;28;20060;-45
2021/05/20 06:17:15;;;;;;;8.38;2.03;;;;;;;9.86;80.27;99963.75;5097931;28;20045;-46
2021/05/20 06:19:42;;;;;;;5.53;1.20;;;;;;;9.84;80.40;99969.66;5087764;28;20117;-45
2021/05/20 06:22:09;;;;;;;5.15;1.45;;;;;;;9.84;80.23;99955.84;5089131;28;20067;-46
2021/05/20 06:24:42;;;;;;;7.13;1.10;;;;;;;9.84;80.53;99944.78;5099210;28;20047;-47
2021/05/20 06:27:12;;;;;;;8.02;1.77;;;;;;;9.86;80.33;99961.81;5106925;28;20109;-45
2021/05/20 06:29:38;;;;;;;8.40;1.67;;;;;;;9.86;80.65;99959.03;5109195;28;20203;-49
2021/05/20 06:32:05;;;;;;;14.23;3.20;;;;;;;9.88;80.64;99956.72;5100664;28;20039;-46
2021/05/20 06:34:32;;;;;;;16.05;3.05;;;;;;;9.87;80.97;99949.59;5098200;28;20042;-44
2021/05/20 06:37:02;;;;;;;15.40;3.20;;;;;;;9.85;81.59;99943.59;5080870;28;20072;-52
2021/05/20 06:39:29;;;;;;;14.32;2.15;;;;;;;9.87;81.49;99932.19;5086056;28;20120;-54
2021/05/20 06:41:56;;;;;;;12.98;2.83;;;;;;;9.85;82.04;99904.13;5088694;28;20422;-48
2021/05/20 06:44:23;;;;;;;13.25;2.40;;;;;;;9.84;82.22;99899.75;5087757;28;20052;-46
2021/05/20 06:46:51;;;;;;;15.25;2.20;;;;;;;9.79;82.34;99870.44;5070567;28;20090;-49
2021/05/20 06:49:18;;;;;;;18.92;2.90;;;;;;;9.78;82.56;99866.03;5094107;28;20059;-51
2021/05/20 06:51:46;;;;;;;20.80;2.97;;;;;;;9.76;83.25;99844.31;5090882;28;20059;-54
2021/05/20 06:54:15;;;;;;;11.88;2.00;;;;;;;9.70;83.20;99847.69;5080139;28;20063;-47
2021/05/20 06:56:43;;;;;;;12.30;3.15;;;;;;;9.64;83.68;99833.34;5092272;28;20056;-47
2021/05/20 07:01:55;;;;;;;15.25;2.70;;;;;;;9.59;84.18;99810.72;5087139;28;20047;-50
2021/05/20 07:04:22;;;;;;;17.98;4.22;;;;;;;9.61;84.89;99830.53;5091986;28;20044;-45
2021/05/20 07:06:49;;;;;;;13.45;3.13;;;;;;;9.58;85.06;99814.66;5089646;28;20465;-46
2021/05/20 07:09:24;;;;;;;21.90;4.10;;;;;;;9.52;85.73;99816.09;5075746;28;20742;-55
2021/05/20 07:11:51;;;;;;;23.55;3.70;;;;;;;9.50;85.73;99796.34;5090895;28;20064;-49
2021/05/20 07:14:18;;;;;;;19.90;3.20;;;;;;;9.49;86.26;99780.91;5105437;28;20100;-47
2021/05/20 07:16:46;;;;;;;11.80;2.90;;;;;;;9.48;85.87;99793.09;5070173;28;20097;-46
2021/05/20 07:19:21;;;;;;;18.65;3.70;;;;;;;9.46;86.49;99795.44;5106084;28;20039;-46
2021/05/20 07:21:49;;;;;;;17.00;2.35;;;;;;;9.47;86.76;99763.91;5094314;28;20067;-45
2021/05/20 07:24:18;;;;;;;15.30;3.15;;;;;;;9.48;86.50;99759.97;5112599;28;20039;-46
2021/05/20 07:26:52;;;;;;;11.10;2.45;;;;;;;9.46;86.67;99729.94;5085516;28;20058;-50
2021/05/20 07:29:19;;;;;;;16.25;3.38;;;;;;;9.45;86.68;99746.88;5091049;28;20105;-45
2021/05/20 07:31:46;;;;;;;22.83;4.13;;;;;;;9.44;87.12;99748.03;5090661;28;20048;-49
2021/05/20 07:34:13;;;;;;;16.13;2.72;;;;;;;9.43;87.05;99721.56;5090806;28;20564;-46
2021/05/20 07:36:44;;;;;;;19.80;3.00;;;;;;;9.43;87.27;99729.84;5098638;28;20064;-49
2021/05/20 07:39:11;;;;;;;16.45;3.13;;;;;;;9.39;87.14;99712.41;5108689;28;20044;-53
2021/05/20 07:41:39;;;;;;;27.38;3.20;;;;;;;9.34;87.72;99683.13;5092184;28;20051;-51
2021/05/20 07:44:07;;;;;;;28.30;4.45;;;;;;;9.25;88.35;99665.97;5070587;28;20162;-48
2021/05/20 07:46:34;;;;;;;14.07;3.20;;;;;;;9.24;88.57;99667.09;5074594;28;20059;-48
2021/05/20 07:49:02;;;;;;;21.85;3.72;;;;;;;9.21;88.84;99639.44;5078289;28;20113;-47
2021/05/20 07:51:29;;;;;;;25.58;5.18;;;;;;;9.16;89.31;99633.03;5090509;28;20094;-50
2021/05/20 07:53:55;;;;;;;25.63;3.25;;;;;;;9.12;89.78;99609.28;5105729;28;20488;-49
2021/05/20 07:56:28;;;;;;;27.42;4.70;;;;;;;9.13;89.58;99611.66;5095627;28;20556;-47
2021/05/20 07:58:55;;;;;;;30.80;5.47;;;;;;;9.16;89.37;99577.78;5093358;28;20063;-54
2021/05/20 08:01:22;;;;;;;16.38;5.00;;;;;;;9.17;89.77;99567.56;5088280;28;20574;-50
2021/05/20 08:03:53;;;;;;;28.23;4.68;;;;;;;9.21;90.00;99581.44;5080954;28;20448;-51
2021/05/20 08:06:31;;;;;;;19.63;3.60;;;;;;;9.22;89.92;99585.78;5083649;28;20097;-49
2021/05/20 08:09:13;;;;;;;21.40;4.32;;;;;;;9.22;89.81;99580.25;5083221;28;20060;-56
2021/05/20 08:11:40;;;;;;;22.13;3.60;;;;;;;9.20;90.17;99577.88;5083039;28;20456;-48
2021/05/20 08:14:08;;;;;;;19.13;3.35;;;;;;;9.19;90.18;99579.84;5089497;28;20292;-48
2021/05/20 08:16:38;;;;;;;35.58;5.82;;;;;;;9.19;90.54;99556.94;5080785;28;20053;-49
2021/05/20 08:19:05;;;;;;;27.52;4.55;;;;;;;9.20;90.47;99550.25;5072266;28;20095;-46
2021/05/20 08:21:34;;;;;;;17.08;4.25;;;;;;;9.19;90.41;99537.59;5108932;28;20031;-48
2021/05/20 08:24:01;;;;;;;25.02;4.82;;;;;;;9.18;90.93;99503.69;5094123;28;20040;-48
2021/05/20 08:26:28;;;;;;;19.35;3.28;;;;;;;9.22;90.76;99522.28;5105968;28;20085;-46
2021/05/20 08:28:55;;;;;;;21.40;4.22;;;;;;;9.23;90.85;99485.22;5089027;28;20512;-54
2021/05/20 08:31:23;;;;;;;29.42;4.25;;;;;;;9.26;90.89;99470.69;5090738;28;20052;-47
2021/05/20 08:33:53;;;;;;;24.05;4.47;;;;;;;9.28;91.03;99446.25;5085979;28;20104;-51
2021/05/20 08:36:20;;;;;;;20.30;3.42;;;;;;;9.27;91.32;99433.59;5098044;28;20086;-52
2021/05/20 08:38:47;;;;;;;20.75;3.92;;;;;;;9.28;91.64;99427.72;5091317;28;20100;-55
2021/05/20 08:41:17;;;;;;;23.75;4.43;;;;;;;9.29;91.63;99409.19;5101209;28;20024;-54
2021/05/20 08:43:46;;;;;;;20.50;4.40;;;;;;;9.33;91.10;99394.28;5086796;28;20090;-53
2021/05/20 08:46:13;;;;;;;16.67;4.15;;;;;;;9.36;91.41;99398.25;5095529;28;20497;-51
2021/05/20 08:48:40;;;;;;;30.08;5.65;;;;;;;9.38;91.57;99379.34;5088689;28;20054;-48
2021/05/20 08:51:07;;;;;;;25.70;4.68;;;;;;;9.38;91.61;99368.28;5075029;28;20621;-50
2021/05/20 08:53:33;;;;;;;24.27;4.25;;;;;;;9.42;91.75;99358.13;5096393;28;20040;-55
2021/05/20 08:56:00;;;;;;;30.80;5.63;;;;;;;9.44;91.74;99336.44;5079377;28;20048;-52
2021/05/20 08:58:27;;;;;;;25.88;4.35;;;;;;;9.44;92.07;99328.16;5094036;28;20051;-50
2021/05/20 09:00:56;;;;;;;16.40;3.90;;;;;;;9.43;91.79;99321.00;5092231;28;20051;-51
2021/05/20 09:03:23;;;;;;;17.08;4.65;;;;;;;9.44;92.39;99306.03;5093507;28;20043;-54
2021/05/20 09:05:50;;;;;;;15.30;3.70;;;;;;;9.47;92.51;99285.97;5104465;28;20078;-53
2021/05/20 09:08:22;;;;;;;13.68;3.28;;;;;;;9.49;92.77;99287.19;5092670;28;20039;-51
2021/05/20 09:10:49;;;;;;;9.98;1.80;;;;;;;9.54;92.86;99277.78;5091321;28;20055;-54
2021/05/20 09:13:18;;;;;;;17.88;3.10;;;;;;;9.56;92.96;99242.28;5090773;28;20039;-55
2021/05/20 09:15:50;;;;;;;17.90;2.70;;;;;;;9.62;93.12;99236.06;5104214;28;20154;-52
2021/05/20 09:18:21;;;;;;;20.80;3.17;;;;;;;9.67;93.24;99212.81;5088372;28;20086;-51
2021/05/20 09:20:52;;;;;;;20.45;2.90;;;;;;;9.70;93.39;99220.34;5087877;28;20079;-49
2021/05/20 09:23:30;;;;;;;23.02;3.78;;;;;;;9.77;93.48;99195.56;5092166;28;20047;-50
2021/05/20 09:26:05;;;;;;;19.95;3.22;;;;;;;9.86;93.58;99173.97;5081252;28;20043;-54
2021/05/20 09:28:43;;;;;;;19.88;3.53;;;;;;;9.93;93.42;99167.72;5096105;28;20055;-50
2021/05/20 09:31:12;;;;;;;24.65;4.72;;;;;;;9.99;93.41;99161.47;5089439;28;20040;-53
2021/05/20 09:33:54;;;;;;;15.60;2.85;;;;;;;10.03;93.70;99140.19;5096366;28;20115;-49
2021/05/20 09:36:23;;;;;;;15.95;3.50;;;;;;;10.04;93.69;99119.63;5108107;28;20158;-48
2021/05/20 09:39:08;;;;;;;21.73;3.15;;;;;;;10.08;93.99;99114.16;5096098;28;20488;-47
2021/05/20 09:41:35;;;;;;;10.30;2.78;;;;;;;10.11;93.63;99103.09;5092890;28;20048;-51
2021/05/20 09:44:28;;;;;;;17.85;4.18;;;;;;;10.16;93.77;99100.03;5093589;28;20039;-48
2021/05/20 09:46:56;;;;;;;17.20;4.15;;;;;;;10.17;93.64;99086.97;5105059;28;20421;-49
2021/05/20 09:49:26;;;;;;;23.02;2.53;;;;;;;10.17;93.37;99087.78;5091883;28;20075;-51
2021/05/20 09:52:19;;;;;;;15.25;3.42;;;;;;;10.16;93.83;99066.84;5105007;28;20047;-50
2021/05/20 09:54:47;;;;;;;12.90;5.25;;;;;;;10.18;93.58;99069.22;5090559;28;20484;-49
2021/05/20 09:57:31;;;;;;;15.02;3.03;;;;;;;10.13;93.74;99051.03;5069646;28;20043;-50
2021/05/20 10:00:11;;;;;;;22.95;3.38;;;;;;;10.16;93.82;99043.94;5077865;28;20044;-49
2021/05/20 10:02:39;;;;;;;19.42;4.80;;;;;;;10.22;93.98;99010.00;5092676;28;20065;-48
2021/05/20 10:05:22;;;;;;;29.10;5.32;;;;;;;10.26;94.11;99005.28;5090874;28;20132;-47
2021/05/20 10:07:50;;;;;;;20.52;3.40;;;;;;;10.35;93.94;98994.66;5080949;28;20198;-48
2021/05/20 10:10:33;;;;;;;32.40;5.97;;;;;;;10.43;94.13;98981.69;5067269;28;20044;-48
2021/05/20 10:13:08;;;;;;;21.00;5.38;;;;;;;10.53;93.95;98958.81;5097174;28;20043;-51
2021/05/20 10:15:39;;;;;;;19.92;2.80;;;;;;;10.60;94.00;98949.72;5065784;28;20118;-57
2021/05/20 10:18:17;;;;;;;29.33;4.68;;;;;;;10.64;93.88;98937.53;5084658;28;20068;-55
2021/05/20 10:20:48;;;;;;;25.35;2.97;;;;;;;10.72;93.89;98932.81;5104978;28;20134;-56
2021/05/20 10:23:22;;;;;;;30.45;3.55;;;;;;;10.78;93.90;98920.94;5089513;28;20051;-50
2021/05/20 10:25:53;;;;;;;19.52;3.35;;;;;;;10.85;93.72;98921.00;5093808;28;20512;-47
2021/05/20 10:28:21;;;;;;;17.42;4.18;;;;;;;10.92;93.68;98906.34;5084808;28;20132;-47
2021/05/20 10:30:51;;;;;;;15.20;3.22;;;;;;;10.94;93.65;98913.09;5087102;28;20048;-50
2021/05/20 10:33:24;;;;;;;13.65;3.47;;;;;;;10.99;93.78;98886.97;5094524;28;20096;-54
2021/05/20 10:35:53;;;;;;;19.80;3.67;;;;;;;11.04;93.75;98883.81;5101728;28;20069;-54
2021/05/20 10:38:30;;;;;;;19.65;4.43;;;;;;;11.12;93.73;98862.50;5105515;28;20039;-52
2021/05/20 10:41:08;;;;;;;14.25;3.72;;;;;;;11.18;93.70;98866.44;5090288;28;20067;-54
2021/05/20 10:43:36;;;;;;;17.45;3.85;;;;;;;11.18;93.64;98855.34;5096817;28;20473;-48
2021/05/20 10:46:07;;;;;;;16.15;4.10;;;;;;;11.16;93.56;98841.91;5110190;28;20043;-53
2021/05/20 10:48:36;;;;;;;17.60;3.15;;;;;;;11.16;93.47;98847.44;5089249;28;20044;-52
2021/05/20 10:51:16;;;;;;;18.95;3.97;;;;;;;11.17;93.47;98832.44;5072221;28;20856;-57
2021/05/20 10:54:05;;;;;;;19.50;4.30;;;;;;;11.17;93.40;98815.81;5099333;28;20047;-55
2021/05/20 10:56:32;;;;;;;24.75;7.10;;;;;;;11.16;93.36;98807.88;5070994;28;20078;-52
2021/05/20 10:59:01;;;;;;;12.98;3.78;;;;;;;11.14;93.32;98797.22;5071140;28;20048;-53
2021/05/20 11:01:30;;;;;;;12.60;3.38;;;;;;;11.15;93.27;98779.38;5095069;28;20427;-53
2021/05/20 11:03:59;;;;;;;6.28;2.33;;;;;;;11.17;92.98;98770.69;5097596;28;20051;-52
2021/05/20 11:06:35;;;;;;;8.20;2.00;;;;;;;11.16;92.33;98758.81;5088578;28;20045;-56
2021/05/20 11:09:03;;;;;;;6.20;2.17;;;;;;;11.17;92.38;98754.88;5079020;28;20044;-53
2021/05/20 11:11:34;;;;;;;4.25;1.55;;;;;;;11.16;92.26;98744.97;5082688;28;20097;-55
2021/05/20 11:14:11;;;;;;;2.90;1.03;;;;;;;11.18;91.96;98739.81;5102296;28;20459;-48
2021/05/20 11:16:43;;;;;;;3.95;1.25;;;;;;;11.16;91.89;98728.34;5097164;28;20040;-50
2021/05/20 11:22:08;;;;;;;3.50;1.70;;;;;;;11.16;91.80;98722.81;5097802;28;20880;-48
2021/05/20 11:24:36;;;;;;;3.33;1.13;;;;;;;11.19;92.06;98701.84;5096258;28;20503;-52
2021/05/20 11:27:15;;;;;;;1.65;1.00;;;;;;;11.20;92.11;98697.91;5091802;28;20056;-49
2021/05/20 11:29:44;;;;;;;2.45;0.60;;;;;;;11.22;92.00;98674.16;5091281;28;20098;-53
2021/05/20 11:37:22;;;;;;;5.82;1.83;;;;;;;11.29;91.84;98640.88;5085977;28;20457;-51
2021/05/20 11:39:49;;;;;;;8.55;1.55;;;;;;;11.35;91.95;98632.94;5093468;28;20104;-54
2021/05/20 11:42:22;;;;;;;4.55;1.13;;;;;;;11.33;91.84;98625.03;5099256;28;20056;-53
2021/05/20 11:44:50;;;;;;;9.38;1.67;;;;;;;11.32;91.54;98606.84;5070507;28;20040;-51